Time;durP1;ratioP1;P1;durP2;ratioP2;P2;SDS_P1;SDS_P2;PMS_P1;PMS_P2;Temp;Humidity;BMP_temperature;BMP_pressure;BME280_temperature;BME280_humidity;BME280_pressure;Samples;Min_cycle;Max_cycle;Signal;HPM_P1;HPM_P2
2023/08/17 00:01:29;;;;;;;9.65;8.35;;;;;;;18.40;100.00;95420.81;5059437;28;20036;-83
2023/08/17 00:03:55;;;;;;;9.75;8.30;;;;;;;18.25;100.00;95450.91;5062098;28;20035;-83
2023/08/17 00:06:20;;;;;;;8.98;8.15;;;;;;;18.36;100.00;95453.72;5052583;28;20029;-83
2023/08/17 00:08:46;;;;;;;9.70;8.82;;;;;;;18.50;100.00;95424.81;5052833;28;20033;-82
2023/08/17 00:11:11;;;;;;;10.05;8.80;;;;;;;18.51;100.00;95429.88;5059038;28;20231;-82
2023/08/17 00:13:36;;;;;;;10.35;9.30;;;;;;;18.45;100.00;95425.44;5058694;28;20032;-83
2023/08/17 00:16:02;;;;;;;10.82;9.73;;;;;;;18.21;100.00;95457.56;5044052;28;20021;-83
2023/08/17 00:18:27;;;;;;;11.82;9.45;;;;;;;18.06;100.00;95507.63;5059399;28;20516;-84
2023/08/17 00:20:53;;;;;;;11.02;9.02;;;;;;;18.11;100.00;95522.75;5050952;28;20021;-83
2023/08/17 00:23:20;;;;;;;12.38;9.13;;;;;;;18.15;100.00;95474.94;5056458;28;20405;-83
2023/08/17 00:25:47;;;;;;;10.63;9.00;;;;;;;18.09;100.00;95465.28;5059240;28;20452;-83
2023/08/17 00:28:13;;;;;;;8.23;7.30;;;;;;;18.05;100.00;95464.06;5043897;28;20492;-84
2023/08/17 00:30:38;;;;;;;8.65;7.90;;;;;;;18.01;100.00;95481.22;5058900;28;20116;-85
2023/08/17 00:33:04;;;;;;;9.02;8.10;;;;;;;18.11;100.00;95481.59;5060357;28;20469;-83
2023/08/17 00:35:29;;;;;;;10.43;8.43;;;;;;;18.16;100.00;95468.69;5042403;28;20027;-84
2023/08/17 00:37:56;;;;;;;8.75;7.53;;;;;;;18.08;100.00;95466.28;5060068;28;20135;-83
2023/08/17 00:40:21;;;;;;;9.30;7.60;;;;;;;17.95;100.00;95458.41;5042602;28;20082;-83
2023/08/17 00:42:47;;;;;;;8.10;7.25;;;;;;;17.88;100.00;95474.16;5059120;28;20021;-83
2023/08/17 00:45:12;;;;;;;8.45;7.60;;;;;;;17.77;100.00;95490.50;5043434;28;20032;-83
2023/08/17 00:47:38;;;;;;;8.82;7.70;;;;;;;17.74;100.00;95504.00;5041700;28;20048;-83
2023/08/17 00:50:04;;;;;;;11.45;7.90;;;;;;;17.69;100.00;95508.25;5043410;28;20055;-83
2023/08/17 00:52:30;;;;;;;10.10;7.88;;;;;;;17.61;100.00;95513.66;5058479;28;20024;-83
2023/08/17 00:54:56;;;;;;;8.60;7.72;;;;;;;17.58;100.00;95524.53;5059817;28;20039;-82
2023/08/17 00:57:23;;;;;;;11.98;7.88;;;;;;;17.55;100.00;95514.44;5058374;28;20090;-84
2023/08/17 00:59:48;;;;;;;8.68;7.53;;;;;;;17.53;100.00;95498.13;5059892;28;20499;-82
2023/08/17 01:02:13;;;;;;;9.18;7.82;;;;;;;17.49;100.00;95491.66;5059062;28;20086;-83
2023/08/17 01:04:39;;;;;;;10.02;7.88;;;;;;;17.51;100.00;95481.78;5058927;28;20056;-83
2023/08/17 01:07:04;;;;;;;8.45;7.57;;;;;;;17.46;100.00;95481.59;5059510;28;20050;-84
2023/08/17 01:09:30;;;;;;;10.75;8.10;;;;;;;17.47;100.00;95476.13;5053681;28;20017;-84
2023/08/17 01:12:03;;;;;;;7.65;7.05;;;;;;;17.42;100.00;95473.31;5046931;28;20151;-84
2023/08/17 01:14:47;;;;;;;11.98;7.22;;;;;;;17.33;100.00;95472.72;5046209;28;20085;-86
2023/08/17 01:17:18;;;;;;;9.13;7.57;;;;;;;17.22;100.00;95446.28;5050246;28;20037;-84
2023/08/17 01:19:45;;;;;;;8.57;7.43;;;;;;;17.28;100.00;95456.78;5042659;28;20086;-85
2023/08/17 01:22:11;;;;;;;11.80;7.50;;;;;;;17.26;100.00;95464.03;5058482;28;20032;-85
2023/08/17 01:24:36;;;;;;;8.90;7.63;;;;;;;17.23;100.00;95456.56;5059706;28;20467;-85
2023/08/17 01:27:02;;;;;;;10.20;7.10;;;;;;;17.15;100.00;95463.78;5059555;28;20021;-84
2023/08/17 01:29:27;;;;;;;12.70;7.95;;;;;;;17.03;100.00;95470.59;5039474;28;20107;-85
2023/08/17 01:32:04;;;;;;;10.90;8.02;;;;;;;17.00;100.00;95476.25;5059308;28;20495;-85
2023/08/17 01:34:33;;;;;;;8.70;7.43;;;;;;;17.03;100.00;95473.22;5059762;28;20036;-84
2023/08/17 01:37:00;;;;;;;8.55;7.25;;;;;;;16.92;100.00;95479.81;5055524;28;20032;-81
2023/08/17 01:39:37;;;;;;;8.07;7.20;;;;;;;17.01;100.00;95481.28;5054749;28;20138;-83
2023/08/17 01:42:03;;;;;;;10.23;7.47;;;;;;;16.92;100.00;95463.34;5051740;28;20024;-79
2023/08/17 01:44:29;;;;;;;8.07;6.88;;;;;;;17.01;100.00;95446.47;5032317;28;20094;-83
2023/08/17 01:46:54;;;;;;;7.70;6.93;;;;;;;16.94;100.00;95441.22;5047613;28;20033;-84
2023/08/17 01:49:20;;;;;;;13.50;7.35;;;;;;;16.91;100.00;95433.75;5032769;28;20060;-84
2023/08/17 01:51:45;;;;;;;7.20;6.53;;;;;;;16.94;100.00;95427.31;5048156;28;20037;-84
2023/08/17 01:54:11;;;;;;;6.95;6.20;;;;;;;16.99;100.00;95417.84;5055696;28;20025;-82
2023/08/17 01:56:36;;;;;;;8.57;6.15;;;;;;;16.99;100.00;95409.19;5060915;28;20016;-84
2023/08/17 01:59:01;;;;;;;7.50;6.10;;;;;;;17.00;100.00;95402.97;5049471;28;20101;-85
2023/08/17 02:01:27;;;;;;;8.88;5.97;;;;;;;16.96;100.00;95399.94;5062007;28;20054;-85
2023/08/17 02:03:53;;;;;;;9.13;6.88;;;;;;;16.98;100.00;95392.72;5056206;28;20540;-83
2023/08/17 02:06:18;;;;;;;6.72;6.22;;;;;;;16.89;100.00;95372.16;5062674;28;20020;-81
2023/08/17 02:08:45;;;;;;;11.23;6.68;;;;;;;16.83;100.00;95368.50;5062796;28;20123;-83
2023/08/17 02:11:10;;;;;;;8.10;6.40;;;;;;;16.79;100.00;95380.38;5044623;28;20032;-80
2023/08/17 02:13:37;;;;;;;9.00;6.57;;;;;;;16.81;100.00;95370.53;5062375;28;20031;-80
2023/08/17 02:16:03;;;;;;;7.07;6.30;;;;;;;16.76;100.00;95375.56;5063973;28;20103;-81
2023/08/17 02:18:31;;;;;;;7.10;6.15;;;;;;;16.62;100.00;95381.75;5061355;28;20062;-80
2023/08/17 02:20:56;;;;;;;6.18;5.57;;;;;;;16.67;100.00;95392.41;5062908;28;20103;-81
2023/08/17 02:23:22;;;;;;;7.93;6.43;;;;;;;16.69;100.00;95382.56;5061651;28;20036;-83
2023/08/17 02:25:47;;;;;;;8.20;6.45;;;;;;;16.78;100.00;95376.16;5033647;28;20482;-81
2023/08/17 02:28:13;;;;;;;8.75;6.85;;;;;;;16.79;100.00;95362.09;5058171;28;20036;-81
2023/08/17 02:30:38;;;;;;;10.60;6.22;;;;;;;16.73;100.00;95361.03;5053002;28;20494;-83
2023/08/17 02:33:04;;;;;;;8.50;7.55;;;;;;;16.59;100.00;95363.84;5057461;28;20060;-82
2023/08/17 02:35:30;;;;;;;8.38;6.88;;;;;;;16.48;100.00;95395.75;5063942;28;20051;-82
2023/08/17 02:37:55;;;;;;;10.23;6.43;;;;;;;16.50;100.00;95415.50;5062168;28;20110;-82
2023/08/17 02:40:21;;;;;;;7.85;7.13;;;;;;;16.45;100.00;95422.28;5038561;28;20098;-83
2023/08/17 02:42:46;;;;;;;7.38;6.60;;;;;;;16.37;100.00;95428.50;5037486;28;20029;-80
2023/08/17 02:45:11;;;;;;;8.40;6.50;;;;;;;16.45;100.00;95428.31;5060759;28;20394;-81
2023/08/17 02:47:37;;;;;;;12.40;6.88;;;;;;;16.31;100.00;95401.31;5045184;28;20052;-81
2023/08/17 02:50:03;;;;;;;10.00;6.47;;;;;;;16.23;100.00;95419.78;5060910;28;20051;-83
2023/08/17 02:52:28;;;;;;;10.50;6.78;;;;;;;16.30;100.00;95436.31;5063413;28;20047;-81
2023/08/17 02:54:54;;;;;;;6.90;6.20;;;;;;;16.31;100.00;95427.44;5061792;28;20016;-83
2023/08/17 02:57:20;;;;;;;9.48;6.53;;;;;;;16.23;100.00;95434.66;5060758;28;20036;-81
2023/08/17 02:59:46;;;;;;;7.95;7.15;;;;;;;16.05;100.00;95445.63;5062253;28;20077;-82
2023/08/17 03:02:11;;;;;;;11.68;7.00;;;;;;;15.96;100.00;95466.88;5057077;28;20028;-84
2023/08/17 03:04:36;;;;;;;7.55;6.93;;;;;;;15.85;100.00;95498.72;5059072;28;20021;-85
2023/08/17 03:07:02;;;;;;;8.80;7.25;;;;;;;15.75;100.00;95527.78;5053940;28;20020;-82
2023/08/17 03:09:28;;;;;;;8.73;7.43;;;;;;;15.74;100.00;95549.66;5053611;28;20033;-83
2023/08/17 03:11:53;;;;;;;10.55;7.15;;;;;;;15.88;100.00;95551.41;5040937;28;20474;-82
2023/08/17 03:14:19;;;;;;;7.72;6.75;;;;;;;15.92;100.00;95529.16;5061209;28;20043;-81
2023/08/17 03:16:45;;;;;;;8.45;6.50;;;;;;;15.90;100.00;95518.06;5057755;28;20079;-80
2023/08/17 03:19:11;;;;;;;10.38;6.03;;;;;;;15.81;100.00;95508.75;5050451;28;20089;-81
2023/08/17 03:21:37;;;;;;;7.88;6.78;;;;;;;15.83;100.00;95519.81;5049077;28;20048;-86
2023/08/17 03:24:02;;;;;;;11.88;6.60;;;;;;;15.84;100.00;95521.44;5060307;28;20029;-85
2023/08/17 03:26:28;;;;;;;11.05;6.57;;;;;;;15.70;100.00;95509.28;5061892;28;20028;-85
2023/08/17 03:28:53;;;;;;;10.80;6.63;;;;;;;15.69;100.00;95516.31;5060699;28;20025;-86
2023/08/17 03:31:21;;;;;;;10.18;6.68;;;;;;;15.58;100.00;95521.19;5062795;28;20043;-85
2023/08/17 03:33:46;;;;;;;9.07;6.40;;;;;;;15.61;100.00;95528.66;5062821;28;20020;-83
2023/08/17 03:36:12;;;;;;;9.00;6.88;;;;;;;15.57;100.00;95515.16;5044094;28;20017;-86
2023/08/17 03:38:39;;;;;;;7.40;6.60;;;;;;;15.54;100.00;95507.72;5061603;28;20478;-86
2023/08/17 03:41:05;;;;;;;8.82;6.53;;;;;;;15.56;100.00;95505.72;5049719;28;20028;-83
2023/08/17 03:43:30;;;;;;;6.95;6.13;;;;;;;15.58;100.00;95498.50;5055373;28;20035;-85
2023/08/17 03:45:56;;;;;;;9.18;6.57;;;;;;;15.56;100.00;95494.47;5034119;28;20033;-84
2023/08/17 03:48:22;;;;;;;8.90;6.10;;;;;;;15.59;100.00;95484.47;5052397;28;20048;-86
2023/08/17 03:50:51;;;;;;;6.15;5.57;;;;;;;15.60;100.00;95475.66;5058221;28;20896;-86
2023/08/17 03:53:17;;;;;;;8.45;6.15;;;;;;;15.65;100.00;95473.25;5060331;28;20029;-80
2023/08/17 03:55:49;;;;;;;8.20;6.15;;;;;;;15.71;100.00;95462.06;5058965;28;20043;-81
2023/08/17 03:58:15;;;;;;;6.40;5.80;;;;;;;15.70;100.00;95454.44;5042645;28;20028;-85
2023/08/17 04:00:40;;;;;;;11.35;5.40;;;;;;;15.80;100.00;95441.81;5041368;28;20041;-86
2023/08/17 04:03:06;;;;;;;5.95;5.43;;;;;;;15.78;100.00;95422.94;5036671;28;20032;-83
2023/08/17 04:05:32;;;;;;;17.55;6.22;;;;;;;15.81;100.00;95427.78;5051422;28;20511;-87
2023/08/17 04:08:01;;;;;;;6.50;5.68;;;;;;;15.93;100.00;95417.59;5061381;28;20059;-87
2023/08/17 04:10:27;;;;;;;7.20;5.65;;;;;;;16.06;100.00;95402.78;5060697;28;20080;-86
2023/08/17 04:12:52;;;;;;;9.88;6.03;;;;;;;16.23;100.00;95387.59;5060657;28;20351;-85
2023/08/17 04:15:18;;;;;;;6.25;5.28;;;;;;;16.25;100.00;95355.03;5042949;28;20028;-85
2023/08/17 04:17:43;;;;;;;8.18;5.45;;;;;;;16.41;100.00;95345.25;5059753;28;20021;-85
2023/08/17 04:20:09;;;;;;;9.02;5.80;;;;;;;16.58;100.00;95318.56;5060605;28;20078;-84
2023/08/17 04:22:35;;;;;;;47.58;7.78;;;;;;;16.70;100.00;95331.84;5060243;28;20171;-84
2023/08/17 04:25:00;;;;;;;16.67;6.15;;;;;;;16.85;100.00;95319.41;5059379;28;20129;-85
2023/08/17 04:27:25;;;;;;;10.40;6.38;;;;;;;16.95;100.00;95330.28;5060228;28;20028;-84
2023/08/17 04:29:51;;;;;;;10.52;6.47;;;;;;;17.11;100.00;95335.13;5059956;28;20082;-84
2023/08/17 04:32:16;;;;;;;8.80;5.57;;;;;;;17.31;100.00;95267.03;5043200;28;20048;-85
2023/08/17 04:34:45;;;;;;;7.85;4.68;;;;;;;17.69;100.00;95192.00;5059820;28;20432;-85
2023/08/17 04:37:12;;;;;;;;;;;;;;;18.25;100.00;95129.16;5059691;28;20027;-82
2023/08/17 04:39:37;;;;;;;8.18;4.55;;;;;;;19.66;100.00;95030.09;5061405;28;19923;-83
2023/08/17 04:42:04;;;;;;;8.90;3.90;;;;;;;21.46;100.00;94910.47;5059083;28;20017;-82
2023/08/17 04:44:30;;;;;;;6.05;4.03;;;;;;;22.64;100.00;94882.84;5054948;28;20066;-83
2023/08/17 04:46:55;;;;;;;5.10;3.28;;;;;;;23.20;100.00;94862.31;5056029;28;20489;-83
2023/08/17 04:49:20;;;;;;;4.38;3.65;;;;;;;23.74;100.00;94849.81;5059757;28;20124;-86
2023/08/17 04:51:46;;;;;;;5.57;4.00;;;;;;;24.42;100.00;94841.75;5043072;28;20104;-82
2023/08/17 04:54:11;;;;;;;3.92;3.53;;;;;;;25.79;100.00;94844.59;5060605;28;20024;-83
2023/08/17 04:56:38;;;;;;;7.03;3.40;;;;;;;25.74;99.05;94844.63;5042452;28;20037;-83
2023/08/17 04:59:03;;;;;;;6.57;2.80;;;;;;;26.77;92.12;94850.16;5057597;28;20032;-82
2023/08/17 05:01:28;;;;;;;5.05;2.80;;;;;;;25.95;96.77;94851.47;5059143;28;20448;-83
2023/08/17 05:03:54;;;;;;;6.85;2.97;;;;;;;26.96;91.05;94856.47;5059144;28;20020;-83
2023/08/17 05:06:20;;;;;;;5.07;3.58;;;;;;;26.62;92.66;94854.47;5059663;28;20020;-83
2023/08/17 05:08:45;;;;;;;4.10;2.90;;;;;;;26.63;92.19;94856.06;5049278;28;20557;-82
2023/08/17 05:11:10;;;;;;;4.55;3.30;;;;;;;27.06;88.55;94853.75;5054302;28;20186;-83
2023/08/17 05:13:36;;;;;;;7.25;2.78;;;;;;;27.40;87.88;94853.75;5050248;28;20035;-83
2023/08/17 05:16:01;;;;;;;4.60;3.00;;;;;;;27.79;85.69;94859.88;5056663;28;20417;-83
2023/08/17 05:18:27;;;;;;;4.40;3.03;;;;;;;28.18;84.49;94854.44;5036269;28;20311;-82
2023/08/17 05:20:52;;;;;;;3.75;2.47;;;;;;;29.74;76.37;94854.22;5049669;28;20035;-82
2023/08/17 05:23:17;;;;;;;3.33;2.55;;;;;;;29.64;75.27;94857.06;5056023;28;20034;-82
2023/08/17 05:25:47;;;;;;;5.57;2.90;;;;;;;29.67;74.25;94854.59;5049615;28;20037;-82
2023/08/17 05:28:12;;;;;;;5.00;2.60;;;;;;;31.25;66.47;94853.16;5056376;28;20024;-82
2023/08/17 05:30:39;;;;;;;3.47;2.30;;;;;;;31.63;64.33;94856.31;5058022;28;20466;-82
2023/08/17 05:33:04;;;;;;;4.22;2.17;;;;;;;32.35;60.98;94851.56;5058731;28;20117;-83
2023/08/17 05:35:29;;;;;;;4.53;2.60;;;;;;;31.86;64.36;94855.22;5062288;28;20086;-82
2023/08/17 05:37:55;;;;;;;8.03;3.03;;;;;;;32.49;61.75;94862.97;5068141;28;20044;-83
2023/08/17 05:40:20;;;;;;;4.60;2.73;;;;;;;33.95;55.24;94859.66;5073706;28;20078;-82
2023/08/17 05:42:47;;;;;;;5.20;2.50;;;;;;;35.14;51.91;94857.63;5056687;28;20129;-82
2023/08/17 05:45:12;;;;;;;4.47;2.72;;;;;;;35.27;50.38;94857.38;5058941;28;20173;-82
2023/08/17 05:47:38;;;;;;;3.00;2.33;;;;;;;35.22;50.17;94857.56;5076553;28;20135;-81
2023/08/17 05:50:05;;;;;;;4.95;2.47;;;;;;;35.20;50.56;94851.69;5046833;28;20055;-81
2023/08/17 05:52:32;;;;;;;3.35;2.53;;;;;;;35.23;50.58;94855.63;5050371;28;20044;-83
2023/08/17 05:54:57;;;;;;;3.28;2.53;;;;;;;35.17;49.65;94851.56;5057461;28;20044;-81
2023/08/17 05:57:22;;;;;;;3.40;2.40;;;;;;;36.16;46.54;94849.75;5046077;28;20032;-82
2023/08/17 05:59:48;;;;;;;3.13;2.27;;;;;;;35.96;47.61;94862.94;5069674;28;20416;-81
2023/08/17 06:02:13;;;;;;;4.33;2.50;;;;;;;36.05;45.97;94852.09;5058795;28;20021;-81
2023/08/17 06:04:39;;;;;;;4.57;2.23;;;;;;;37.17;44.71;94851.50;5057509;28;20039;-82
2023/08/17 06:07:04;;;;;;;3.07;2.47;;;;;;;37.07;44.01;94851.19;5060053;28;20085;-82
2023/08/17 06:09:29;;;;;;;3.53;2.27;;;;;;;36.58;45.63;94851.19;5058594;28;20614;-81
2023/08/17 06:11:55;;;;;;;5.63;2.60;;;;;;;36.83;43.64;94852.75;5058803;28;20032;-82
2023/08/17 06:14:22;;;;;;;4.40;2.27;;;;;;;37.95;42.66;94849.09;5052802;28;20517;-81
2023/08/17 06:16:47;;;;;;;4.68;2.70;;;;;;;38.03;42.79;94854.72;5053975;28;20031;-82
2023/08/17 06:19:13;;;;;;;2.83;2.63;;;;;;;37.75;43.23;94847.41;5058414;28;20044;-81
2023/08/17 06:21:38;;;;;;;4.32;3.15;;;;;;;38.23;42.68;94851.00;5040762;28;20111;-82
2023/08/17 06:24:04;;;;;;;5.32;3.38;;;;;;;37.93;43.75;94843.28;5041329;28;20024;-81
2023/08/17 06:26:29;;;;;;;7.07;3.63;;;;;;;38.55;41.81;94849.91;5059407;28;20028;-82
2023/08/17 06:28:55;;;;;;;7.50;3.80;;;;;;;37.85;44.13;94843.41;5054633;28;20213;-81
2023/08/17 06:31:20;;;;;;;4.72;3.90;;;;;;;33.70;55.38;94843.28;5044884;28;20028;-81
2023/08/17 06:33:46;;;;;;;8.57;4.65;;;;;;;31.84;60.08;94842.13;5026278;28;20074;-80
2023/08/17 06:36:16;;;;;;;6.38;3.92;;;;;;;32.38;65.92;94845.56;5054979;28;20482;-83
2023/08/17 06:38:42;;;;;;;5.60;5.10;;;;;;;32.85;64.89;94850.13;5043911;28;20105;-82
2023/08/17 06:41:07;;;;;;;7.97;4.93;;;;;;;32.76;63.85;94846.66;5060131;28;20040;-84
2023/08/17 06:43:33;;;;;;;8.98;4.43;;;;;;;32.67;64.46;94853.09;5062579;28;20024;-80
2023/08/17 06:46:00;;;;;;;9.43;4.97;;;;;;;33.22;64.12;94848.00;5057717;28;20103;-79
2023/08/17 06:48:25;;;;;;;6.28;4.85;;;;;;;33.21;63.64;94849.91;5059213;28;20048;-86
2023/08/17 06:50:51;;;;;;;4.32;3.97;;;;;;;32.72;64.85;94856.41;5062834;28;20406;-88
2023/08/17 06:53:16;;;;;;;4.80;4.30;;;;;;;32.88;65.44;94848.72;5054293;28;20473;-87
2023/08/17 06:55:42;;;;;;;4.03;3.70;;;;;;;32.59;64.17;94860.00;5062114;28;20508;-85
2023/08/17 06:58:07;;;;;;;6.13;3.23;;;;;;;33.22;60.15;94853.38;5044578;28;20029;-83
2023/08/17 07:11:36;;;;;;;4.20;3.00;;;;;;;39.53;36.87;94847.88;5113228;27;20399;-86
2023/08/17 07:14:01;;;;;;;3.60;2.90;;;;;;;39.74;37.50;94844.81;5100203;28;20039;-84
2023/08/17 07:16:27;;;;;;;3.47;3.17;;;;;;;37.69;39.80;94839.88;5114327;28;20474;-85
2023/08/17 07:18:52;;;;;;;6.27;3.30;;;;;;;37.29;41.22;94837.16;5098217;28;20038;-84
2023/08/17 07:21:18;;;;;;;4.03;3.42;;;;;;;37.04;40.36;94836.44;5095069;28;20023;-86
2023/08/17 07:23:44;;;;;;;4.57;3.75;;;;;;;36.32;43.08;94847.97;5078667;28;20023;-86
2023/08/17 07:26:10;;;;;;;6.15;3.67;;;;;;;33.12;53.09;94838.38;5095438;28;20051;-84
2023/08/17 07:28:35;;;;;;;4.38;3.97;;;;;;;33.92;51.69;94845.75;5084154;28;20514;-86
2023/08/17 07:31:01;;;;;;;5.07;4.15;;;;;;;33.66;57.17;94834.25;5078913;28;20024;-85
2023/08/17 07:33:26;;;;;;;4.72;3.80;;;;;;;33.24;56.46;94840.41;5096970;28;20028;-85
2023/08/17 07:35:53;;;;;;;5.55;4.15;;;;;;;33.09;57.44;94835.53;5062701;28;20024;-86
2023/08/17 07:38:18;;;;;;;6.32;3.90;;;;;;;32.80;55.85;94834.19;5097656;28;20120;-84
2023/08/17 07:40:44;;;;;;;5.45;3.88;;;;;;;32.46;56.79;94838.66;5096407;28;20156;-85
2023/08/17 07:43:09;;;;;;;6.10;3.67;;;;;;;32.62;57.24;94835.28;5113771;28;20035;-84
2023/08/17 07:45:34;;;;;;;4.63;3.63;;;;;;;31.74;54.38;94837.03;5063070;28;20461;-83
2023/08/17 07:48:00;;;;;;;3.95;3.58;;;;;;;32.17;59.59;94833.81;5061605;28;20048;-83
2023/08/17 07:50:25;;;;;;;3.70;3.35;;;;;;;32.36;54.54;94832.47;5104971;28;20027;-83
2023/08/17 07:52:51;;;;;;;5.47;3.28;;;;;;;31.58;58.75;94833.13;5098659;28;20027;-85
2023/08/17 07:55:16;;;;;;;9.18;3.95;;;;;;;31.36;61.17;94833.13;5097523;28;20027;-85
2023/08/17 07:57:41;;;;;;;2.95;2.65;;;;;;;31.03;53.62;94826.38;5097205;28;20424;-84
2023/08/17 08:00:07;;;;;;;6.05;2.40;;;;;;;31.85;51.65;94822.25;5091897;28;20024;-83
2023/08/17 08:02:33;;;;;;;5.97;2.50;;;;;;;31.37;53.71;94826.63;5089331;28;20028;-83
2023/08/17 08:04:58;;;;;;;2.53;2.22;;;;;;;30.01;52.05;94816.09;5089611;28;20060;-78
2023/08/17 08:07:23;;;;;;;4.55;1.92;;;;;;;30.43;50.82;94815.84;5064045;28;20059;-85
2023/08/17 08:09:49;;;;;;;2.63;1.73;;;;;;;30.11;52.35;94815.91;5074282;28;20054;-81
2023/08/17 08:12:14;;;;;;;9.73;2.33;;;;;;;30.43;53.01;94809.72;5071381;28;20117;-83
2023/08/17 08:14:40;;;;;;;2.22;1.90;;;;;;;30.12;50.47;94801.44;5082647;28;20453;-85
2023/08/17 08:17:05;;;;;;;2.88;2.10;;;;;;;29.54;51.84;94812.59;5064905;28;20066;-81
2023/08/17 08:19:32;;;;;;;8.43;2.08;;;;;;;29.59;53.12;94809.06;5084193;28;20031;-80
2023/08/17 08:21:58;;;;;;;4.70;2.00;;;;;;;30.10;53.99;94809.78;5080185;28;20086;-82
2023/08/17 08:24:23;;;;;;;3.97;2.17;;;;;;;29.31;52.89;94807.41;5082248;28;20028;-87
2023/08/17 08:26:48;;;;;;;3.67;2.28;;;;;;;29.67;53.66;94805.72;5080902;28;20466;-79
2023/08/17 08:29:14;;;;;;;4.43;2.00;;;;;;;30.24;51.98;94804.44;5082516;28;20077;-82
2023/08/17 08:31:39;;;;;;;3.83;1.92;;;;;;;29.67;52.48;94801.16;5080525;28;20039;-82
2023/08/17 08:34:04;;;;;;;3.40;1.88;;;;;;;29.51;55.92;94802.50;5076069;28;20082;-82
2023/08/17 08:36:30;;;;;;;2.88;1.88;;;;;;;29.42;54.35;94801.59;5062861;28;20512;-81
2023/08/17 08:38:56;;;;;;;4.75;2.05;;;;;;;29.36;54.63;94804.66;5063047;28;20020;-82
2023/08/17 08:41:22;;;;;;;3.40;2.03;;;;;;;30.17;52.86;94804.03;5081881;28;20032;-79
2023/08/17 08:43:48;;;;;;;2.25;1.70;;;;;;;29.55;52.30;94805.41;5076018;28;20024;-80
2023/08/17 08:46:15;;;;;;;3.95;2.00;;;;;;;29.59;51.05;94803.72;5075070;28;20024;-80
2023/08/17 08:48:41;;;;;;;6.50;2.25;;;;;;;30.06;52.47;94791.94;5058661;28;20039;-82
2023/08/17 08:51:09;;;;;;;2.17;1.80;;;;;;;29.97;52.59;94796.41;5057552;28;20530;-81
2023/08/17 08:53:38;;;;;;;5.03;2.20;;;;;;;29.91;53.92;94800.25;5076083;28;20035;-80
2023/08/17 08:56:04;;;;;;;3.60;1.90;;;;;;;29.78;51.52;94799.13;5074154;28;20031;-81
2023/08/17 08:58:29;;;;;;;3.55;2.22;;;;;;;30.76;50.93;94801.22;5082414;28;20031;-79
2023/08/17 09:00:57;;;;;;;1.67;1.58;;;;;;;29.69;51.54;94798.22;5079216;28;20502;-80
2023/08/17 09:03:23;;;;;;;2.35;1.98;;;;;;;29.64;52.99;94791.06;5064049;28;20028;-78
2023/08/17 09:05:50;;;;;;;3.22;2.15;;;;;;;29.77;53.62;94779.63;5063253;28;20119;-81
2023/08/17 09:08:21;;;;;;;3.78;2.13;;;;;;;29.94;53.19;94789.78;5064407;28;20384;-77
2023/08/17 09:10:47;;;;;;;2.92;2.20;;;;;;;29.85;53.75;94788.88;5080347;28;20070;-81
2023/08/17 09:13:12;;;;;;;5.60;2.33;;;;;;;29.40;52.21;94785.09;5063038;28;20028;-77
2023/08/17 09:15:38;;;;;;;3.17;2.15;;;;;;;30.09;50.01;94781.47;5080639;28;20028;-77
2023/08/17 09:18:07;;;;;;;4.80;2.03;;;;;;;29.70;50.84;94779.22;5062724;28;20032;-77
2023/08/17 09:20:41;;;;;;;5.28;2.10;;;;;;;29.76;51.49;94782.59;5059683;28;20039;-76
2023/08/17 09:23:20;;;;;;;7.40;2.13;;;;;;;29.68;50.97;94777.94;5079021;28;20035;-79
2023/08/17 09:25:47;;;;;;;3.38;2.20;;;;;;;30.13;50.51;94768.28;5066055;28;20028;-77
2023/08/17 09:28:14;;;;;;;2.22;2.03;;;;;;;30.37;50.39;94760.06;5080514;28;20024;-83
2023/08/17 09:30:54;;;;;;;3.40;2.38;;;;;;;30.87;50.72;94764.34;5078724;28;20028;-82
2023/08/17 09:33:21;;;;;;;3.42;2.00;;;;;;;30.74;52.47;94763.28;5080621;28;20107;-79
2023/08/17 09:35:47;;;;;;;5.55;2.13;;;;;;;30.15;50.88;94761.56;5062112;28;20074;-78
2023/08/17 09:38:12;;;;;;;2.40;1.85;;;;;;;30.12;51.45;94754.13;5077180;28;20465;-80
2023/08/17 09:40:38;;;;;;;6.50;1.70;;;;;;;30.53;48.94;94753.34;5078849;28;20134;-77
2023/08/17 09:43:04;;;;;;;3.03;1.83;;;;;;;30.57;49.98;94744.41;5077959;28;20440;-80
2023/08/17 09:45:30;;;;;;;2.72;2.15;;;;;;;30.47;49.08;94752.63;5078472;28;20028;-78
2023/08/17 09:47:59;;;;;;;3.00;2.00;;;;;;;30.63;49.06;94745.09;5062322;28;20031;-79
2023/08/17 09:50:25;;;;;;;2.75;1.95;;;;;;;30.45;49.36;94740.66;5080979;28;20147;-77
2023/08/17 09:52:54;;;;;;;4.20;2.25;;;;;;;30.72;48.56;94732.59;5079136;28;20032;-77
2023/08/17 09:55:23;;;;;;;2.03;1.83;;;;;;;30.86;48.70;94740.56;5079460;28;20420;-78
2023/08/17 09:57:50;;;;;;;4.35;2.05;;;;;;;30.53;48.50;94737.28;5062809;28;20036;-81
2023/08/17 10:00:15;;;;;;;2.20;1.75;;;;;;;30.63;50.06;94732.50;5079952;28;20077;-81
2023/08/17 10:02:44;;;;;;;5.20;1.92;;;;;;;30.52;49.85;94747.19;5062704;28;20018;-84
2023/08/17 10:05:11;;;;;;;1.73;1.63;;;;;;;30.48;48.02;94745.41;5059666;28;20076;-79
2023/08/17 10:07:39;;;;;;;3.40;1.93;;;;;;;30.41;49.24;94734.34;5062490;28;20036;-80
2023/08/17 10:10:07;;;;;;;6.40;2.10;;;;;;;30.84;49.64;94733.63;5075142;28;20144;-81
2023/08/17 10:12:34;;;;;;;;;;;;;;;30.72;48.53;94733.38;5067279;28;20039;-80
2023/08/17 10:15:03;;;;;;;5.97;2.13;;;;;;;30.76;49.22;94731.66;5078274;28;19919;-80
2023/08/17 10:17:35;;;;;;;1.95;1.50;;;;;;;31.06;49.18;94732.06;5077108;28;20611;-81
2023/08/17 10:20:01;;;;;;;4.30;2.00;;;;;;;30.92;47.61;94740.13;5064702;28;20052;-82
2023/08/17 10:23:17;;;;;;;5.47;2.20;;;;;;;30.42;49.16;94731.38;5078050;28;20746;-81
2023/08/17 10:25:43;;;;;;;2.08;1.88;;;;;;;30.58;48.46;94729.94;5043249;28;20135;-80
2023/08/17 10:28:10;;;;;;;3.92;2.15;;;;;;;30.64;47.43;94725.25;5057157;28;20110;-81
2023/08/17 10:30:37;;;;;;;4.55;1.52;;;;;;;30.68;48.01;94724.38;5061803;28;20028;-79
2023/08/17 10:33:05;;;;;;;3.75;1.85;;;;;;;30.99;45.33;94712.97;5060878;28;20028;-87
2023/08/17 10:35:32;;;;;;;5.60;1.90;;;;;;;30.86;47.93;94722.59;5071419;28;20027;-83
2023/08/17 10:37:59;;;;;;;3.03;1.70;;;;;;;30.91;48.47;94721.72;5065561;28;20061;-78
2023/08/17 10:40:28;;;;;;;2.90;2.00;;;;;;;31.19;46.38;94717.84;5055895;28;20051;-82
2023/08/17 10:42:57;;;;;;;2.95;1.70;;;;;;;30.63;44.74;94718.34;5055160;28;20027;-81
2023/08/17 10:45:25;;;;;;;;;;;;;;;30.44;47.02;94718.47;5056093;28;20581;-78
2023/08/17 10:48:19;;;;;;;3.92;1.90;;;;;;;31.29;46.41;94709.56;5075785;28;19974;-80
2023/08/17 10:50:59;;;;;;;5.97;1.80;;;;;;;31.04;46.00;94710.19;5075929;28;20071;-80
2023/08/17 10:53:24;;;;;;;4.88;1.98;;;;;;;31.65;48.73;94712.13;5076278;28;20145;-80
2023/08/17 10:55:52;;;;;;;4.28;2.15;;;;;;;31.88;46.89;94703.69;5078070;28;20114;-81
2023/08/17 10:58:17;;;;;;;7.30;2.10;;;;;;;31.88;47.72;94703.69;5076969;28;20032;-81
2023/08/17 11:00:44;;;;;;;8.93;3.60;;;;;;;31.81;55.97;94702.59;5057979;28;20055;-86
2023/08/17 11:03:17;;;;;;;7.00;4.15;;;;;;;31.54;64.43;94700.09;5078857;28;20105;-81
2023/08/17 11:05:49;;;;;;;4.53;3.90;;;;;;;31.22;65.03;94707.31;5058992;28;20468;-87
2023/08/17 11:08:34;;;;;;;5.80;4.05;;;;;;;31.34;63.47;94701.38;5075763;28;20031;-82
2023/08/17 11:11:06;;;;;;;4.07;3.10;;;;;;;31.56;53.54;94693.34;5073801;28;20040;-81
2023/08/17 11:13:36;;;;;;;4.18;2.08;;;;;;;31.48;47.66;94696.72;5068483;28;20036;-79
2023/08/17 11:16:03;;;;;;;3.72;1.83;;;;;;;31.08;44.89;94692.44;5052758;28;20047;-87
2023/08/17 11:18:28;;;;;;;5.07;1.80;;;;;;;31.31;45.15;94691.28;5059439;28;20419;-81
2023/08/17 11:20:54;;;;;;;4.15;1.60;;;;;;;31.44;43.53;94681.56;5061212;28;20035;-79
2023/08/17 11:23:20;;;;;;;2.65;1.50;;;;;;;31.73;45.65;94681.88;5077860;28;20054;-82
2023/08/17 11:25:46;;;;;;;2.53;1.77;;;;;;;31.78;47.28;94682.56;5061562;28;20063;-78
2023/08/17 11:28:14;;;;;;;4.60;4.20;;;;;;;31.12;64.44;94688.03;5061622;28;20047;-80
2023/08/17 11:30:39;;;;;;;9.10;4.40;;;;;;;31.24;67.14;94677.56;5061118;28;20024;-82
2023/08/17 11:33:05;;;;;;;4.47;4.07;;;;;;;31.17;65.91;94682.56;5078601;28;20289;-81
2023/08/17 11:35:31;;;;;;;5.85;4.10;;;;;;;31.12;65.22;94680.00;5077701;28;20024;-81
2023/08/17 11:37:57;;;;;;;6.25;4.38;;;;;;;30.72;67.43;94665.69;5057096;28;20445;-78